createdAt,value
2019-03-09T00:00:16.847Z,20.09
2019-03-09T00:01:16.645Z,20.08
2019-03-09T00:02:16.829Z,20.08
2019-03-09T00:03:16.735Z,20.07
2019-03-09T00:04:16.764Z,20.07
2019-03-09T00:05:16.851Z,20.06
2019-03-09T00:06:16.804Z,20.05
2019-03-09T00:07:16.633Z,20.05
2019-03-09T00:08:16.792Z,20.04
2019-03-09T00:09:16.815Z,20.04
2019-03-09T00:10:16.755Z,20.02
2019-03-09T00:11:16.730Z,20.03
2019-03-09T00:12:16.906Z,20.02
2019-03-09T00:13:16.654Z,20.02
2019-03-09T00:14:17.042Z,20.02
2019-03-09T00:15:16.654Z,20.02
2019-03-09T00:16:16.815Z,20.01
2019-03-09T00:17:16.798Z,20.01
2019-03-09T00:18:16.661Z,20.01
2019-03-09T00:19:16.751Z,20.01
2019-03-09T00:20:16.845Z,20
2019-03-09T00:21:16.691Z,19.99
2019-03-09T00:22:16.799Z,19.99
2019-03-09T00:23:16.588Z,20
2019-03-09T00:24:16.727Z,19.99
2019-03-09T00:25:16.774Z,19.99
2019-03-09T00:26:16.566Z,19.98
2019-03-09T00:27:16.703Z,19.97
2019-03-09T00:28:16.706Z,19.97
2019-03-09T00:29:16.849Z,19.96
2019-03-09T00:30:17.185Z,19.96
2019-03-09T00:31:16.760Z,19.95
2019-03-09T00:32:16.709Z,19.95
2019-03-09T00:33:16.776Z,19.95
2019-03-09T00:34:16.888Z,19.95
2019-03-09T00:35:16.673Z,19.93
2019-03-09T00:36:16.702Z,19.94
2019-03-09T00:37:16.727Z,19.92
2019-03-09T00:38:16.724Z,19.92
2019-03-09T00:39:16.723Z,19.92
2019-03-09T00:40:16.750Z,19.92
2019-03-09T00:41:16.625Z,19.91
2019-03-09T00:42:16.740Z,19.91
2019-03-09T00:43:16.802Z,19.9
2019-03-09T00:44:16.638Z,19.9
2019-03-09T00:45:16.762Z,19.9
2019-03-09T00:46:16.659Z,19.9
2019-03-09T00:47:16.670Z,19.9
2019-03-09T00:48:16.776Z,19.89
2019-03-09T00:49:16.675Z,19.89
2019-03-09T00:50:16.656Z,19.87
2019-03-09T00:51:17.106Z,19.87
2019-03-09T00:52:17.003Z,19.87
2019-03-09T00:53:16.779Z,19.87
2019-03-09T00:54:16.914Z,19.86
2019-03-09T00:55:16.783Z,19.85
2019-03-09T00:56:16.768Z,19.86
2019-03-09T00:57:16.648Z,19.86
2019-03-09T00:58:16.735Z,19.86
2019-03-09T00:59:16.827Z,19.86
2019-03-09T01:00:16.661Z,19.85
2019-03-09T01:01:16.744Z,19.84
2019-03-09T01:02:16.739Z,19.84
2019-03-09T01:03:16.625Z,19.84
2019-03-09T01:04:16.767Z,19.83
2019-03-09T01:05:16.920Z,19.82
2019-03-09T01:06:16.713Z,19.82
2019-03-09T01:07:16.837Z,19.81
2019-03-09T01:08:16.620Z,19.82
2019-03-09T01:09:16.664Z,19.81
2019-03-09T01:10:16.769Z,19.81
2019-03-09T01:11:16.607Z,19.8
2019-03-09T01:12:16.850Z,19.8
2019-03-09T01:13:16.930Z,19.8
2019-03-09T01:14:16.739Z,19.78
2019-03-09T01:15:16.838Z,19.79
2019-03-09T01:16:16.544Z,19.78
2019-03-09T01:17:16.684Z,19.79
2019-03-09T01:18:16.729Z,19.78
2019-03-09T01:19:16.596Z,19.77
2019-03-09T01:20:16.715Z,19.78
2019-03-09T01:21:16.843Z,19.79
2019-03-09T01:22:16.693Z,19.77
2019-03-09T01:23:16.662Z,19.77
2019-03-09T01:24:16.776Z,19.77
2019-03-09T01:25:16.634Z,19.76
2019-03-09T01:26:16.787Z,19.76
2019-03-09T01:27:16.906Z,19.76
2019-03-09T01:28:16.737Z,19.75
2019-03-09T01:29:16.761Z,19.75
2019-03-09T01:30:16.595Z,19.74
2019-03-09T01:31:16.645Z,19.74
2019-03-09T01:32:16.776Z,19.73
2019-03-09T01:33:16.740Z,19.74
2019-03-09T01:34:16.688Z,19.74
2019-03-09T01:35:16.802Z,19.72
2019-03-09T01:36:16.646Z,19.72
2019-03-09T01:37:16.697Z,19.72
2019-03-09T01:38:16.487Z,19.71
2019-03-09T01:39:16.669Z,19.7
2019-03-09T01:40:16.732Z,19.7
2019-03-09T01:41:16.582Z,19.69
2019-03-09T01:42:16.686Z,19.7
2019-03-09T01:43:16.750Z,19.7
2019-03-09T01:44:16.626Z,19.69
2019-03-09T01:45:16.711Z,19.69
2019-03-09T01:46:16.695Z,19.68
2019-03-09T01:47:16.706Z,19.68
2019-03-09T01:48:16.698Z,19.67
2019-03-09T01:49:16.567Z,19.67
2019-03-09T01:50:16.674Z,19.68
2019-03-09T01:51:16.786Z,19.68
2019-03-09T01:52:16.664Z,19.67
2019-03-09T01:53:16.720Z,19.67
2019-03-09T01:54:16.772Z,19.67
2019-03-09T01:55:16.665Z,19.66
2019-03-09T01:56:17.099Z,19.65
2019-03-09T01:57:16.893Z,19.67
2019-03-09T01:58:16.702Z,19.66
2019-03-09T01:59:16.784Z,19.66
2019-03-09T02:00:16.784Z,19.65
2019-03-09T02:01:16.684Z,19.66
2019-03-09T02:02:16.717Z,19.66
2019-03-09T02:03:16.796Z,19.65
2019-03-09T02:04:16.649Z,19.65
2019-03-09T02:05:16.692Z,19.64
2019-03-09T02:06:16.545Z,19.65
2019-03-09T02:07:16.682Z,19.63
2019-03-09T02:08:16.732Z,19.63
2019-03-09T02:09:16.568Z,19.63
2019-03-09T02:10:16.779Z,19.63
2019-03-09T02:11:16.865Z,19.62
2019-03-09T02:12:16.665Z,19.63
2019-03-09T02:13:16.732Z,19.62
2019-03-09T02:14:16.864Z,19.63
2019-03-09T02:15:16.598Z,19.61
2019-03-09T02:16:16.746Z,19.62
2019-03-09T02:17:16.598Z,19.62
2019-03-09T02:18:16.609Z,19.61
2019-03-09T02:19:16.723Z,19.61
2019-03-09T02:20:16.611Z,19.61
2019-03-09T02:21:16.747Z,19.61
2019-03-09T02:22:16.793Z,19.6
2019-03-09T02:23:16.560Z,19.6
2019-03-09T02:24:16.646Z,19.59
2019-03-09T02:25:16.787Z,19.58
2019-03-09T02:26:16.660Z,19.58
2019-03-09T02:27:16.649Z,19.59
2019-03-09T02:28:16.760Z,19.57
2019-03-09T02:29:16.688Z,19.57
2019-03-09T02:30:16.747Z,19.58
2019-03-09T02:31:16.793Z,19.57
2019-03-09T02:32:16.580Z,19.56
2019-03-09T02:33:16.663Z,19.56
2019-03-09T02:34:16.599Z,19.55
2019-03-09T02:35:16.729Z,19.56
2019-03-09T02:36:16.709Z,19.56
2019-03-09T02:37:16.655Z,19.56
2019-03-09T02:38:17.238Z,19.57
2019-03-09T02:39:16.868Z,19.55
2019-03-09T02:40:16.588Z,19.54
2019-03-09T02:41:16.735Z,19.54
2019-03-09T02:42:16.833Z,19.54
2019-03-09T02:43:16.687Z,19.54
2019-03-09T02:44:16.724Z,19.54
2019-03-09T02:45:16.647Z,19.54
2019-03-09T02:46:16.628Z,19.53
2019-03-09T02:47:16.753Z,19.53
2019-03-09T02:48:16.639Z,19.54
2019-03-09T02:49:16.747Z,19.53
2019-03-09T02:50:16.793Z,19.53
2019-03-09T02:51:16.596Z,19.53
2019-03-09T02:52:16.697Z,19.52
2019-03-09T02:53:16.832Z,19.52
2019-03-09T02:54:16.651Z,19.52
2019-03-09T02:55:16.732Z,19.51
2019-03-09T02:56:16.524Z,19.52
2019-03-09T02:57:16.703Z,19.52
2019-03-09T02:58:16.734Z,19.51
2019-03-09T02:59:16.572Z,19.52
2019-03-09T03:00:17.200Z,19.51
2019-03-09T03:01:17.609Z,19.51
2019-03-09T03:02:16.664Z,19.5
2019-03-09T03:03:16.676Z,19.5
2019-03-09T03:04:17.123Z,19.5
2019-03-09T03:05:16.570Z,19.49
2019-03-09T03:06:16.678Z,19.48
2019-03-09T03:07:16.833Z,19.48
2019-03-09T03:08:16.555Z,19.48
2019-03-09T03:09:16.691Z,19.48
2019-03-09T03:10:16.559Z,19.48
2019-03-09T03:11:16.552Z,19.48
2019-03-09T03:12:16.740Z,19.46
2019-03-09T03:13:16.789Z,19.47
2019-03-09T03:14:16.690Z,19.47
2019-03-09T03:15:16.762Z,19.46
2019-03-09T03:16:16.613Z,19.47
2019-03-09T03:17:16.629Z,19.46
2019-03-09T03:18:16.720Z,19.47
2019-03-09T03:19:16.834Z,19.46
2019-03-09T03:20:16.942Z,19.46
2019-03-09T03:21:16.762Z,19.45
2019-03-09T03:22:17.581Z,19.45
2019-03-09T03:23:16.779Z,19.45
2019-03-09T03:24:16.488Z,19.44
2019-03-09T03:25:16.662Z,19.45
2019-03-09T03:26:16.809Z,19.44
2019-03-09T03:27:16.733Z,19.46
2019-03-09T03:28:16.678Z,19.44
2019-03-09T03:29:16.727Z,19.44
2019-03-09T03:30:16.898Z,19.44
2019-03-09T03:31:16.734Z,19.43
2019-03-09T03:32:16.487Z,19.43
2019-03-09T03:33:16.614Z,19.42
2019-03-09T03:34:16.785Z,19.44
2019-03-09T03:35:16.658Z,19.43
2019-03-09T03:36:16.617Z,19.42
2019-03-09T03:37:16.720Z,19.43
2019-03-09T03:38:16.665Z,19.43
2019-03-09T03:39:16.622Z,19.41
2019-03-09T03:40:16.466Z,19.4
2019-03-09T03:41:16.759Z,19.41
2019-03-09T03:42:16.775Z,19.4
2019-03-09T03:43:16.637Z,19.4
2019-03-09T03:44:16.705Z,19.4
2019-03-09T03:45:16.889Z,19.41
2019-03-09T03:46:16.576Z,19.4
2019-03-09T03:47:16.936Z,19.39
2019-03-09T03:48:16.487Z,19.39
2019-03-09T03:49:16.518Z,19.4
2019-03-09T03:50:16.711Z,19.39
2019-03-09T03:51:16.529Z,19.38
2019-03-09T03:52:16.597Z,19.38
2019-03-09T03:53:16.721Z,19.37
2019-03-09T03:54:16.558Z,19.37
2019-03-09T03:55:16.723Z,19.38
2019-03-09T03:56:16.774Z,19.38
2019-03-09T03:57:16.559Z,19.39
2019-03-09T03:58:16.566Z,19.37
2019-03-09T03:59:16.806Z,19.37
2019-03-09T04:00:16.693Z,19.37
2019-03-09T04:01:16.754Z,19.37
2019-03-09T04:02:16.792Z,19.36
2019-03-09T04:03:16.673Z,19.37
2019-03-09T04:04:16.682Z,19.36
2019-03-09T04:05:16.594Z,19.36
2019-03-09T04:06:16.654Z,19.36
2019-03-09T04:07:16.709Z,19.35
2019-03-09T04:08:16.511Z,19.35
2019-03-09T04:09:16.737Z,19.35
2019-03-09T04:10:16.601Z,19.34
2019-03-09T04:11:16.513Z,19.34
2019-03-09T04:12:16.783Z,19.34
2019-03-09T04:13:16.605Z,19.34
2019-03-09T04:14:16.591Z,19.34
2019-03-09T04:15:16.760Z,19.34
2019-03-09T04:16:16.554Z,19.33
2019-03-09T04:17:16.736Z,19.33
2019-03-09T04:18:16.828Z,19.33
2019-03-09T04:19:16.591Z,19.34
2019-03-09T04:20:16.797Z,19.33
2019-03-09T04:21:16.451Z,19.32
2019-03-09T04:22:16.611Z,19.32
2019-03-09T04:23:16.763Z,19.32
2019-03-09T04:24:16.565Z,19.33
2019-03-09T04:25:16.608Z,19.33
2019-03-09T04:26:16.690Z,19.32
2019-03-09T04:27:16.585Z,19.31
2019-03-09T04:28:16.727Z,19.32
2019-03-09T04:29:16.766Z,19.31
2019-03-09T04:30:16.627Z,19.31
2019-03-09T04:31:16.691Z,19.3
2019-03-09T04:32:16.815Z,19.3
2019-03-09T04:33:16.526Z,19.3
2019-03-09T04:34:16.710Z,19.29
2019-03-09T04:35:16.552Z,19.3
2019-03-09T04:36:16.558Z,19.29
2019-03-09T04:37:16.740Z,19.29
2019-03-09T04:38:16.536Z,19.29
2019-03-09T04:39:16.835Z,19.29
2019-03-09T04:40:16.586Z,19.28
2019-03-09T04:41:16.567Z,19.29
2019-03-09T04:42:16.643Z,19.29
2019-03-09T04:43:16.431Z,19.29
2019-03-09T04:44:16.594Z,19.29
2019-03-09T04:45:16.739Z,19.3
2019-03-09T04:46:16.493Z,19.3
2019-03-09T04:47:16.676Z,19.31
2019-03-09T04:48:16.765Z,19.31
2019-03-09T04:49:16.552Z,19.31
2019-03-09T04:50:16.675Z,19.32
2019-03-09T04:51:16.700Z,19.32
2019-03-09T04:52:16.495Z,19.32
2019-03-09T04:53:16.701Z,19.34
2019-03-09T04:54:16.531Z,19.35
2019-03-09T04:55:16.502Z,19.36
2019-03-09T04:56:16.734Z,19.36
2019-03-09T04:57:16.611Z,19.37
2019-03-09T04:58:16.585Z,19.37
2019-03-09T04:59:16.802Z,19.37
2019-03-09T05:00:16.559Z,19.4
2019-03-09T05:01:16.651Z,19.41
2019-03-09T05:02:16.560Z,19.42
2019-03-09T05:03:16.725Z,19.44
2019-03-09T05:04:16.673Z,19.45
2019-03-09T05:05:16.479Z,19.47
2019-03-09T05:06:16.634Z,19.48
2019-03-09T05:07:16.687Z,19.5
2019-03-09T05:08:16.534Z,19.52
2019-03-09T05:09:16.617Z,19.52
2019-03-09T05:10:16.687Z,19.54
2019-03-09T05:11:16.545Z,19.56
2019-03-09T05:12:16.703Z,19.58
2019-03-09T05:13:16.607Z,19.58
2019-03-09T05:14:16.612Z,19.6
2019-03-09T05:15:16.733Z,19.62
2019-03-09T05:16:16.577Z,19.64
2019-03-09T05:17:16.636Z,19.65
2019-03-09T05:18:16.746Z,19.67
2019-03-09T05:19:16.896Z,19.68
2019-03-09T05:20:16.640Z,19.69
2019-03-09T05:21:16.454Z,19.7
2019-03-09T05:22:16.671Z,19.71
2019-03-09T05:23:16.676Z,19.73
2019-03-09T05:24:16.634Z,19.75
2019-03-09T05:25:16.668Z,19.76
2019-03-09T05:26:16.802Z,19.78
2019-03-09T05:27:16.597Z,19.8
2019-03-09T05:28:16.755Z,19.8
2019-03-09T05:29:16.527Z,19.82
2019-03-09T05:30:16.660Z,19.84
2019-03-09T05:31:16.635Z,19.85
2019-03-09T05:32:16.530Z,19.86
2019-03-09T05:33:16.593Z,19.88
2019-03-09T05:34:16.766Z,19.89
2019-03-09T05:35:16.561Z,19.89
2019-03-09T05:36:16.608Z,19.91
2019-03-09T05:37:16.457Z,19.93
2019-03-09T05:38:16.689Z,19.94
2019-03-09T05:39:16.656Z,19.95
2019-03-09T05:40:16.554Z,19.96
2019-03-09T05:41:16.668Z,19.97
2019-03-09T05:42:17.001Z,19.98
2019-03-09T05:43:16.528Z,20
2019-03-09T05:44:16.622Z,20.01
2019-03-09T05:45:16.543Z,20.02
2019-03-09T05:46:16.850Z,20.03
2019-03-09T05:47:17.051Z,20.04
2019-03-09T05:48:16.555Z,20.06
2019-03-09T05:49:16.677Z,20.07
2019-03-09T05:50:16.688Z,20.09
2019-03-09T05:51:16.545Z,20.1
2019-03-09T05:52:16.570Z,20.12
2019-03-09T05:53:16.714Z,20.13
2019-03-09T05:54:16.568Z,20.13
2019-03-09T05:55:16.601Z,20.15
2019-03-09T05:56:16.446Z,20.17
2019-03-09T05:57:16.582Z,20.17
2019-03-09T05:58:16.664Z,20.18
2019-03-09T05:59:16.531Z,20.19
2019-03-09T06:00:16.670Z,20.2
2019-03-09T06:01:16.679Z,20.1
2019-03-09T06:02:16.509Z,19.99
2019-03-09T06:03:16.709Z,19.97
2019-03-09T06:04:16.473Z,19.96
2019-03-09T06:05:16.524Z,19.88
2019-03-09T06:06:16.611Z,19.84
2019-03-09T06:07:16.457Z,19.83
2019-03-09T06:08:16.809Z,19.73
2019-03-09T06:09:16.792Z,19.71
2019-03-09T06:10:16.546Z,19.66
2019-03-09T06:11:16.584Z,19.61
2019-03-09T06:12:16.555Z,19.59
2019-03-09T06:13:16.597Z,19.65
2019-03-09T06:14:16.735Z,19.7
2019-03-09T06:15:16.398Z,19.74
2019-03-09T06:16:16.637Z,19.77
2019-03-09T06:17:16.675Z,19.81
2019-03-09T06:18:16.467Z,19.83
2019-03-09T06:19:16.616Z,19.87
2019-03-09T06:20:16.686Z,19.89
2019-03-09T06:21:16.577Z,19.91
2019-03-09T06:22:16.601Z,19.93
2019-03-09T06:23:16.551Z,19.95
2019-03-09T06:24:16.647Z,19.97
2019-03-09T06:25:16.700Z,19.98
2019-03-09T06:26:16.543Z,19.98
2019-03-09T06:27:16.933Z,19.99
2019-03-09T06:28:16.486Z,20.02
2019-03-09T06:29:16.532Z,20.01
2019-03-09T06:30:16.593Z,20.03
2019-03-09T06:31:16.450Z,20.03
2019-03-09T06:32:16.557Z,20.04
2019-03-09T06:33:16.733Z,20.05
2019-03-09T06:34:16.451Z,20.05
2019-03-09T06:35:16.589Z,20.07
2019-03-09T06:36:16.670Z,20.08
2019-03-09T06:37:16.465Z,20.06
2019-03-09T06:38:16.630Z,20.07
2019-03-09T06:39:16.505Z,20.08
2019-03-09T06:40:16.537Z,20.07
2019-03-09T06:41:16.612Z,20.09
2019-03-09T06:42:16.549Z,20.08
2019-03-09T06:43:16.509Z,20.08
2019-03-09T06:44:16.702Z,20.09
2019-03-09T06:45:16.521Z,20.09
2019-03-09T06:46:16.541Z,20.09
2019-03-09T06:47:16.670Z,20.1
2019-03-09T06:48:16.533Z,20.09
2019-03-09T06:49:16.682Z,20.09
2019-03-09T06:50:16.645Z,20.09
2019-03-09T06:51:16.637Z,20.09
2019-03-09T06:52:17.061Z,20.09
2019-03-09T06:53:16.654Z,20.08
2019-03-09T06:54:16.598Z,20.09
2019-03-09T06:55:16.605Z,20.08
2019-03-09T06:56:16.424Z,20.08
2019-03-09T06:57:16.588Z,20.08
2019-03-09T06:58:16.678Z,20.08
2019-03-09T06:59:16.466Z,20.09
2019-03-09T07:00:16.579Z,20.08
2019-03-09T07:01:16.647Z,20.08
2019-03-09T07:02:16.562Z,20.08
2019-03-09T07:03:16.566Z,20.08
2019-03-09T07:04:16.614Z,20.08
2019-03-09T07:05:16.479Z,20.08
2019-03-09T07:06:16.612Z,20.07
2019-03-09T07:07:16.530Z,20.07
2019-03-09T07:08:16.477Z,20.07
2019-03-09T07:09:16.584Z,20.06
2019-03-09T07:10:16.523Z,20.06
2019-03-09T07:11:16.506Z,20.05
2019-03-09T07:12:16.664Z,20.06
2019-03-09T07:13:16.717Z,20.05
2019-03-09T07:14:16.638Z,20.04
2019-03-09T07:15:16.649Z,20.05
2019-03-09T07:16:16.500Z,20.04
2019-03-09T07:17:16.673Z,20.05
2019-03-09T07:18:16.561Z,20.04
2019-03-09T07:19:16.578Z,20.04
2019-03-09T07:20:16.538Z,20.03
2019-03-09T07:21:16.419Z,20.04
2019-03-09T07:22:16.594Z,20.03
2019-03-09T07:23:16.713Z,20.03
2019-03-09T07:24:16.433Z,20.03
2019-03-09T07:25:16.600Z,20.02
2019-03-09T07:26:16.618Z,20.02
2019-03-09T07:27:16.574Z,20.03
2019-03-09T07:28:16.587Z,20.02
2019-03-09T07:29:16.736Z,20.02
2019-03-09T07:30:16.445Z,20.01
2019-03-09T07:31:16.601Z,20.01
2019-03-09T07:32:16.415Z,20.01
2019-03-09T07:33:16.521Z,20.01
2019-03-09T07:34:16.632Z,20.01
2019-03-09T07:35:16.704Z,20.01
2019-03-09T07:36:16.464Z,20.01
2019-03-09T07:37:16.632Z,20
2019-03-09T07:38:16.506Z,20
2019-03-09T07:39:16.562Z,19.99
2019-03-09T07:40:16.404Z,19.98
2019-03-09T07:41:16.640Z,19.98
2019-03-09T07:42:16.588Z,19.98
2019-03-09T07:43:16.434Z,19.98
2019-03-09T07:44:16.598Z,19.97
2019-03-09T07:45:16.724Z,19.97
2019-03-09T07:46:16.453Z,19.97
2019-03-09T07:47:16.819Z,19.96
2019-03-09T07:48:16.594Z,19.97
2019-03-09T07:49:16.465Z,19.97
2019-03-09T07:50:16.587Z,19.96
2019-03-09T07:51:16.380Z,19.96
2019-03-09T07:52:16.483Z,19.94
2019-03-09T07:53:16.622Z,19.94
2019-03-09T07:54:16.472Z,19.93
2019-03-09T07:55:16.597Z,19.93
2019-03-09T07:56:16.700Z,19.92
2019-03-09T07:57:16.500Z,19.92
2019-03-09T07:58:16.627Z,19.91
2019-03-09T07:59:16.650Z,19.92
2019-03-09T08:00:16.499Z,19.92
2019-03-09T08:01:16.563Z,19.91
2019-03-09T08:02:16.738Z,19.91
2019-03-09T08:03:16.512Z,19.91
2019-03-09T08:04:16.551Z,19.9
2019-03-09T08:05:16.400Z,19.9
2019-03-09T08:06:16.533Z,19.9
2019-03-09T08:07:16.770Z,19.89
2019-03-09T08:08:16.424Z,19.88
2019-03-09T08:09:16.553Z,19.89
2019-03-09T08:10:16.630Z,19.88
2019-03-09T08:11:16.547Z,19.88
2019-03-09T08:12:16.659Z,19.88
2019-03-09T08:13:16.501Z,19.87
2019-03-09T08:14:16.460Z,19.88
2019-03-09T08:15:16.617Z,19.88
2019-03-09T08:16:16.693Z,19.87
2019-03-09T08:17:16.500Z,19.86
2019-03-09T08:18:16.652Z,19.85
2019-03-09T08:19:16.721Z,19.85
2019-03-09T08:20:16.542Z,19.85
2019-03-09T08:21:16.770Z,19.84
2019-03-09T08:22:16.490Z,19.84
2019-03-09T08:23:16.539Z,19.84
2019-03-09T08:24:16.435Z,19.84
2019-03-09T08:25:16.573Z,19.84
2019-03-09T08:26:16.511Z,19.83
2019-03-09T08:27:16.359Z,19.83
2019-03-09T08:28:16.719Z,19.82
2019-03-09T08:29:16.537Z,19.81
2019-03-09T08:30:16.367Z,19.81
2019-03-09T08:31:16.522Z,19.81
2019-03-09T08:32:16.702Z,19.8
2019-03-09T08:33:16.456Z,19.81
2019-03-09T08:34:16.547Z,19.79
2019-03-09T08:35:16.750Z,19.8
2019-03-09T08:36:16.487Z,19.8
2019-03-09T08:37:16.651Z,19.79
2019-03-09T08:38:16.546Z,19.79
2019-03-09T08:39:16.461Z,19.79
2019-03-09T08:40:16.726Z,19.78
2019-03-09T08:41:16.480Z,19.78
2019-03-09T08:42:16.539Z,19.76
2019-03-09T08:43:16.648Z,19.77
2019-03-09T08:44:16.507Z,19.77
2019-03-09T08:45:16.523Z,19.77
2019-03-09T08:46:16.352Z,19.72
2019-03-09T08:47:16.521Z,19.64
2019-03-09T08:48:16.532Z,19.6
2019-03-09T08:49:16.480Z,19.55
2019-03-09T08:50:16.492Z,19.51
2019-03-09T08:51:16.522Z,19.47
2019-03-09T08:52:16.381Z,19.49
2019-03-09T08:53:16.579Z,19.53
2019-03-09T08:54:16.562Z,19.55
2019-03-09T08:55:17.953Z,19.59
2019-03-09T08:56:16.603Z,19.61
2019-03-09T08:57:16.589Z,19.63
2019-03-09T08:58:16.512Z,19.66
2019-03-09T08:59:16.525Z,19.67
2019-03-09T09:00:16.601Z,19.7
2019-03-09T09:01:16.456Z,19.72
2019-03-09T09:02:16.521Z,19.76
2019-03-09T09:03:16.390Z,19.79
2019-03-09T09:04:16.461Z,19.8
2019-03-09T09:05:16.616Z,19.83
2019-03-09T09:06:16.455Z,19.84
2019-03-09T09:07:16.535Z,19.88
2019-03-09T09:08:16.682Z,19.89
2019-03-09T09:09:16.506Z,19.91
2019-03-09T09:10:16.623Z,19.94
2019-03-09T09:11:16.634Z,19.95
2019-03-09T09:12:16.558Z,19.96
2019-03-09T09:13:16.517Z,19.99
2019-03-09T09:14:16.359Z,20
2019-03-09T09:15:16.506Z,20.02
2019-03-09T09:16:16.674Z,20.04
2019-03-09T09:17:16.439Z,20.05
2019-03-09T09:18:16.570Z,20.07
2019-03-09T09:19:16.587Z,20.09
2019-03-09T09:20:16.548Z,20.09
2019-03-09T09:21:16.524Z,20.1
2019-03-09T09:22:16.397Z,20.1
2019-03-09T09:23:16.844Z,20.12
2019-03-09T09:24:16.797Z,20.13
2019-03-09T09:25:16.500Z,20.16
2019-03-09T09:26:16.514Z,20.18
2019-03-09T09:27:16.545Z,20.18
2019-03-09T09:28:16.514Z,20.19
2019-03-09T09:29:16.522Z,20.2
2019-03-09T09:30:16.464Z,20.2
2019-03-09T09:31:16.565Z,20.21
2019-03-09T09:32:16.589Z,20.22
2019-03-09T09:33:16.339Z,20.22
2019-03-09T09:34:16.543Z,20.23
2019-03-09T09:35:16.566Z,20.23
2019-03-09T09:36:16.410Z,20.24
2019-03-09T09:37:16.583Z,20.25
2019-03-09T09:38:16.871Z,20.25
2019-03-09T09:39:16.389Z,20.25
2019-03-09T09:40:16.598Z,20.27
2019-03-09T09:41:16.515Z,20.29
2019-03-09T09:42:16.449Z,20.29
2019-03-09T09:43:16.618Z,20.31
2019-03-09T09:44:16.494Z,20.31
2019-03-09T09:45:17.053Z,20.33
2019-03-09T09:46:16.847Z,20.33
2019-03-09T09:47:16.483Z,20.33
2019-03-09T09:48:16.577Z,20.34
2019-03-09T09:49:16.439Z,20.35
2019-03-09T09:50:16.531Z,20.36
2019-03-09T09:51:16.558Z,20.37
2019-03-09T09:52:16.425Z,20.39
2019-03-09T09:53:16.825Z,20.4
2019-03-09T09:54:16.696Z,20.4
2019-03-09T09:55:16.534Z,20.42
2019-03-09T09:56:16.489Z,20.41
2019-03-09T09:57:16.361Z,20.41
2019-03-09T09:58:16.591Z,20.43
2019-03-09T09:59:16.545Z,20.43
2019-03-09T10:00:16.454Z,20.43
2019-03-09T10:01:16.466Z,20.43
2019-03-09T10:02:16.599Z,20.44
2019-03-09T10:03:16.441Z,20.45
2019-03-09T10:04:16.585Z,20.45
2019-03-09T10:05:16.335Z,20.45
2019-03-09T10:06:16.506Z,20.47
2019-03-09T10:07:16.383Z,20.45
2019-03-09T10:08:16.417Z,20.46
2019-03-09T10:09:16.535Z,20.46
2019-03-09T10:10:16.405Z,20.48
2019-03-09T10:11:16.415Z,20.47
2019-03-09T10:12:16.630Z,20.48
2019-03-09T10:13:16.462Z,20.47
2019-03-09T10:14:16.578Z,20.47
2019-03-09T10:15:16.577Z,20.49
2019-03-09T10:16:16.451Z,20.47
2019-03-09T10:17:16.442Z,20.47
2019-03-09T10:18:16.350Z,20.48
2019-03-09T10:19:16.569Z,20.46
2019-03-09T10:20:16.601Z,20.47
2019-03-09T10:21:16.388Z,20.46
2019-03-09T10:22:16.624Z,20.45
2019-03-09T10:23:16.561Z,20.44
2019-03-09T10:24:16.387Z,20.43
2019-03-09T10:25:16.529Z,20.43
2019-03-09T10:26:16.744Z,20.4
2019-03-09T10:27:16.598Z,20.42
2019-03-09T10:28:16.791Z,20.41
2019-03-09T10:29:16.837Z,20.42
2019-03-09T10:30:16.456Z,20.42
2019-03-09T10:31:16.592Z,20.42
2019-03-09T10:32:16.416Z,20.42
2019-03-09T10:33:16.500Z,20.43
2019-03-09T10:34:16.340Z,20.43
2019-03-09T10:35:16.455Z,20.43
2019-03-09T10:36:16.485Z,20.42
2019-03-09T10:37:16.368Z,20.43
2019-03-09T10:38:16.505Z,20.43
2019-03-09T10:39:16.656Z,20.44
2019-03-09T10:40:16.541Z,20.44
2019-03-09T10:41:16.562Z,20.44
2019-03-09T10:42:16.374Z,20.44
2019-03-09T10:43:16.448Z,20.43
2019-03-09T10:44:16.543Z,20.44
2019-03-09T10:45:16.484Z,20.43
2019-03-09T10:46:16.451Z,20.44
2019-03-09T10:47:16.610Z,20.44
2019-03-09T10:48:16.422Z,20.43
2019-03-09T10:49:16.472Z,20.43
2019-03-09T10:50:16.688Z,20.42
2019-03-09T10:51:16.496Z,20.43
2019-03-09T10:52:16.513Z,20.42
2019-03-09T10:53:16.435Z,20.41
2019-03-09T10:54:16.478Z,20.41
2019-03-09T10:55:16.518Z,20.41
2019-03-09T10:56:16.464Z,20.4
2019-03-09T10:57:16.505Z,20.39
2019-03-09T10:58:16.610Z,20.39
2019-03-09T10:59:16.513Z,20.39
2019-03-09T11:00:16.517Z,20.4
2019-03-09T11:01:16.379Z,20.39
2019-03-09T11:02:16.523Z,20.38
2019-03-09T11:03:16.594Z,20.39
2019-03-09T11:04:16.465Z,20.37
2019-03-09T11:05:16.497Z,20.35
2019-03-09T11:06:16.589Z,20.33
2019-03-09T11:07:16.377Z,20.31
2019-03-09T11:08:16.523Z,20.29
2019-03-09T11:09:16.562Z,20.28
2019-03-09T11:10:16.482Z,20.27
2019-03-09T11:11:16.419Z,20.27
2019-03-09T11:12:17.012Z,20.25
2019-03-09T11:13:16.477Z,20.25
2019-03-09T11:14:16.508Z,20.23
2019-03-09T11:15:16.432Z,20.23
2019-03-09T11:16:16.513Z,20.23
2019-03-09T11:17:16.519Z,20.22
2019-03-09T11:18:16.351Z,20.22
2019-03-09T11:19:16.564Z,20.21
2019-03-09T11:20:16.363Z,20.2
2019-03-09T11:21:16.495Z,20.2
2019-03-09T11:22:16.493Z,20.2
2019-03-09T11:23:16.375Z,20.19
2019-03-09T11:24:16.414Z,20.19
2019-03-09T11:25:16.577Z,20.19
2019-03-09T11:26:16.521Z,20.19
2019-03-09T11:27:16.329Z,20.2
2019-03-09T11:28:16.620Z,20.17
2019-03-09T11:29:16.542Z,20.17
2019-03-09T11:30:16.473Z,20.17
2019-03-09T11:31:16.486Z,20.17
2019-03-09T11:32:16.546Z,20.17
2019-03-09T11:33:16.506Z,20.17
2019-03-09T11:34:16.558Z,20.2
2019-03-09T11:35:16.457Z,20.21
2019-03-09T11:36:16.436Z,20.22
2019-03-09T11:37:16.576Z,20.24
2019-03-09T11:38:16.456Z,20.24
2019-03-09T11:39:16.452Z,20.25
2019-03-09T11:40:16.642Z,20.26
2019-03-09T11:41:19.167Z,20.27
2019-03-09T11:42:16.467Z,20.28
2019-03-09T11:43:16.246Z,20.29
2019-03-09T11:44:16.463Z,20.31
2019-03-09T11:45:16.466Z,20.31
2019-03-09T11:46:16.426Z,20.32
2019-03-09T11:47:16.469Z,20.33
2019-03-09T11:48:16.555Z,20.33
2019-03-09T11:49:16.365Z,20.34
2019-03-09T11:50:16.708Z,20.33
2019-03-09T11:51:16.553Z,20.34
2019-03-09T11:52:20.210Z,20.35
2019-03-09T11:53:16.524Z,20.34
2019-03-09T11:54:16.523Z,20.35
2019-03-09T11:55:16.493Z,20.36
2019-03-09T11:56:16.819Z,20.36
2019-03-09T11:57:16.330Z,20.36
2019-03-09T11:58:16.380Z,20.36
2019-03-09T11:59:16.509Z,20.38
2019-03-09T12:00:16.435Z,20.38
2019-03-09T12:01:16.418Z,20.38
2019-03-09T12:02:16.526Z,20.4
2019-03-09T12:03:16.443Z,20.4
2019-03-09T12:04:16.444Z,20.4
2019-03-09T12:05:16.636Z,20.43
2019-03-09T12:06:16.414Z,20.42
2019-03-09T12:07:16.481Z,20.44
2019-03-09T12:08:16.299Z,20.43
2019-03-09T12:09:16.439Z,20.44
2019-03-09T12:10:16.596Z,20.44
2019-03-09T12:11:16.391Z,20.45
2019-03-09T12:12:16.507Z,20.46
2019-03-09T12:13:16.349Z,20.46
2019-03-09T12:14:16.391Z,20.47
2019-03-09T12:15:16.518Z,20.46
2019-03-09T12:16:16.464Z,20.49
2019-03-09T12:17:16.516Z,20.5
2019-03-09T12:18:16.613Z,20.51
2019-03-09T12:19:16.419Z,20.52
2019-03-09T12:20:16.419Z,20.52
2019-03-09T12:21:16.323Z,20.55
2019-03-09T12:22:16.451Z,20.54
2019-03-09T12:23:16.611Z,20.55
2019-03-09T12:24:19.811Z,20.56
2019-03-09T12:25:16.531Z,20.57
2019-03-09T12:26:16.621Z,20.57
2019-03-09T12:27:16.405Z,20.57
2019-03-09T12:28:16.474Z,20.57
2019-03-09T12:29:16.339Z,20.58
2019-03-09T12:30:16.507Z,20.58
2019-03-09T12:31:16.534Z,20.58
2019-03-09T12:32:16.392Z,20.59
2019-03-09T12:33:16.426Z,20.59
2019-03-09T12:34:16.528Z,20.57
2019-03-09T12:35:16.427Z,20.57
2019-03-09T12:36:16.421Z,20.58
2019-03-09T12:37:16.245Z,20.58
2019-03-09T12:38:16.457Z,20.58
2019-03-09T12:39:18.381Z,20.58
2019-03-09T12:40:16.325Z,20.57
2019-03-09T12:41:16.419Z,20.58
2019-03-09T12:42:16.490Z,20.59
2019-03-09T12:43:16.448Z,20.59
2019-03-09T12:44:16.480Z,20.59
2019-03-09T12:45:16.603Z,20.59
2019-03-09T12:46:16.534Z,20.59
2019-03-09T12:47:16.509Z,20.59
2019-03-09T12:48:16.334Z,20.59
2019-03-09T12:49:16.370Z,20.6
2019-03-09T12:50:16.484Z,20.6
2019-03-09T12:51:16.429Z,20.59
2019-03-09T12:52:16.554Z,20.59
2019-03-09T12:53:16.590Z,20.59
2019-03-09T12:54:16.405Z,20.59
2019-03-09T12:55:16.593Z,20.59